Terminal Aerodrome Forecast
Issued by NWS La Crosse, WI

Home | Current Version | Previous Version | Text Only | Print | Product List | Glossary On
Versions: 1 2 3 4 5 6 7 8 9 10 11 12 13 14 15 16 17 18 19 20 21 22 23 24 25 26 27 28 29 30 31
000
FTUS43 KARX 230610 AAA
TAFLSE
TAF AMD
KLSE 230610Z 2306/2406 35013KT 6SM -SN OVC012
      TEMPO 2306/2309 2SM -SN
     FM231400 33013G21KT P6SM OVC015
     FM232100 32009KT P6SM OVC015
     FM240200 32005KT P6SM BKN020=

USA.gov is the U.S. government's official web portal to all federal, state and local government web resources and services.